Time;durP1;ratioP1;P1;durP2;ratioP2;P2;SDS_P1;SDS_P2;PMS_P1;PMS_P2;Temp;Humidity;BMP_temperature;BMP_pressure;BME280_temperature;BME280_humidity;BME280_pressure;Samples;Min_cycle;Max_cycle;Signal;HPM_P1;HPM_P2
2022/08/27 00:00:14;;;;;;;7.90;3.85;;;;;;;18.17;55.74;94459.78;5075492;28;20054;-79
2022/08/27 00:02:43;;;;;;;6.45;3.08;;;;;;;18.16;55.89;94455.50;5076243;28;20441;-79
2022/08/27 00:05:10;;;;;;;10.25;3.95;;;;;;;18.15;55.93;94459.13;5075886;28;20059;-79
2022/08/27 00:07:35;;;;;;;7.88;3.63;;;;;;;18.06;55.79;94452.34;5059157;28;20411;-79
2022/08/27 00:10:01;;;;;;;8.85;3.60;;;;;;;18.01;56.44;94458.16;5059110;28;20038;-79
2022/08/27 00:12:27;;;;;;;11.25;4.05;;;;;;;17.93;56.60;94439.03;5075780;28;20123;-79
2022/08/27 00:14:52;;;;;;;9.18;3.85;;;;;;;17.89;56.94;94453.53;5075453;28;20028;-79
2022/08/27 00:17:17;;;;;;;10.00;4.05;;;;;;;18.00;56.99;94456.53;5075569;28;20032;-79
2022/08/27 00:19:43;;;;;;;11.32;4.18;;;;;;;17.99;57.16;94457.50;5093747;28;20089;-79
2022/08/27 00:22:08;;;;;;;9.07;4.00;;;;;;;17.81;57.03;94423.72;5075557;28;20028;-79
2022/08/27 00:24:35;;;;;;;13.35;3.60;;;;;;;17.94;57.30;94449.38;5092316;28;20405;-79
2022/08/27 00:27:01;;;;;;;7.85;3.67;;;;;;;17.82;57.19;94427.97;5058745;28;20035;-79
2022/08/27 00:29:27;;;;;;;9.70;3.60;;;;;;;17.75;57.42;94431.47;5075439;28;20040;-79
2022/08/27 00:31:52;;;;;;;5.38;3.40;;;;;;;17.73;57.55;94433.47;5075532;28;20059;-79
2022/08/27 00:34:18;;;;;;;7.90;3.45;;;;;;;17.69;57.76;94422.50;5075359;28;20058;-79
2022/08/27 00:36:44;;;;;;;5.95;3.65;;;;;;;17.73;57.82;94428.22;5075332;28;20039;-79
2022/08/27 00:39:10;;;;;;;8.38;4.00;;;;;;;17.73;57.98;94438.72;5058347;28;20085;-79
2022/08/27 00:41:37;;;;;;;8.57;3.90;;;;;;;17.66;58.14;94430.72;5075309;28;20051;-79
2022/08/27 00:44:02;;;;;;;9.40;3.50;;;;;;;17.61;58.16;94419.97;5074970;28;20028;-79
2022/08/27 00:46:33;;;;;;;8.30;3.80;;;;;;;17.65;58.23;94434.34;5075072;28;20433;-79
2022/08/27 00:49:01;;;;;;;11.13;3.90;;;;;;;17.76;57.94;94440.97;5091802;28;20103;-79
2022/08/27 00:51:27;;;;;;;6.53;3.67;;;;;;;17.74;57.99;94440.34;5058498;28;20422;-79
2022/08/27 00:53:53;;;;;;;7.05;3.80;;;;;;;17.64;58.36;94427.47;5092885;28;20486;-79
2022/08/27 00:56:26;;;;;;;10.48;3.65;;;;;;;17.73;58.19;94444.78;5058134;28;20032;-79
2022/08/27 00:58:53;;;;;;;7.30;3.63;;;;;;;17.68;58.15;94434.00;5074120;28;20484;-79
2022/08/27 01:01:22;;;;;;;9.93;3.92;;;;;;;17.75;58.19;94437.53;5058007;28;20052;-79
2022/08/27 01:03:49;;;;;;;10.82;4.32;;;;;;;17.76;58.22;94436.53;5074490;28;20282;-79
2022/08/27 01:06:15;;;;;;;8.90;4.10;;;;;;;17.78;57.95;94426.72;5074888;28;20040;-79
2022/08/27 01:08:44;;;;;;;11.32;4.00;;;;;;;17.80;57.97;94427.34;5074545;28;20024;-79
2022/08/27 01:11:10;;;;;;;5.97;3.80;;;;;;;17.76;58.00;94417.34;5091353;28;20028;-79
2022/08/27 01:13:35;;;;;;;8.88;4.00;;;;;;;17.79;58.09;94428.31;5074740;28;20029;-79
2022/08/27 01:16:02;;;;;;;7.13;3.45;;;;;;;17.74;57.94;94432.47;5074318;28;20040;-80
2022/08/27 01:18:30;;;;;;;9.65;3.80;;;;;;;17.61;58.31;94428.66;5074280;28;20494;-79
2022/08/27 01:21:11;;;;;;;8.13;3.70;;;;;;;17.36;58.89;94422.81;5074502;28;20028;-79
2022/08/27 01:23:48;;;;;;;5.75;3.53;;;;;;;17.27;59.36;94444.06;5058019;28;20028;-79
2022/08/27 01:26:13;;;;;;;7.25;3.58;;;;;;;17.25;59.36;94440.81;5091130;28;20043;-79
2022/08/27 01:28:39;;;;;;;7.60;3.83;;;;;;;17.18;59.25;94435.44;5074186;28;20028;-79
2022/08/27 01:31:05;;;;;;;10.80;3.72;;;;;;;17.31;58.78;94440.91;5074163;28;20028;-79
2022/08/27 01:33:30;;;;;;;9.75;4.03;;;;;;;17.20;58.83;94433.44;5074048;28;20411;-79
2022/08/27 01:35:56;;;;;;;6.05;3.78;;;;;;;17.25;58.91;94433.75;5090890;28;20039;-79
2022/08/27 01:38:23;;;;;;;11.15;3.80;;;;;;;17.26;58.78;94431.94;5073876;28;20111;-78
2022/08/27 01:40:48;;;;;;;13.18;4.07;;;;;;;17.36;58.81;94437.75;5074091;28;20422;-79
2022/08/27 01:43:14;;;;;;;7.93;3.67;;;;;;;17.35;58.83;94431.66;5090750;28;20024;-79
2022/08/27 01:45:43;;;;;;;8.48;3.42;;;;;;;17.25;59.08;94428.50;5090973;28;20028;-79
2022/08/27 01:48:09;;;;;;;8.40;3.83;;;;;;;17.40;58.93;94439.84;5091809;28;20039;-79
2022/08/27 01:50:36;;;;;;;7.57;3.55;;;;;;;17.34;59.15;94429.25;5092390;28;20412;-79
2022/08/27 01:53:04;;;;;;;7.55;3.85;;;;;;;17.29;59.51;94445.50;5073843;28;20501;-79
2022/08/27 01:55:29;;;;;;;7.18;3.80;;;;;;;17.29;59.50;94442.88;5090766;28;20397;-79
2022/08/27 01:57:55;;;;;;;8.75;3.70;;;;;;;17.28;59.58;94437.81;5073659;28;20028;-79
2022/08/27 02:00:25;;;;;;;15.57;4.20;;;;;;;17.26;59.50;94437.19;5073588;28;20043;-79
2022/08/27 02:02:51;;;;;;;7.60;4.03;;;;;;;17.26;59.54;94445.88;5057289;28;20071;-79
2022/08/27 02:05:17;;;;;;;9.45;3.92;;;;;;;17.30;59.61;94452.41;5073613;28;20504;-79
2022/08/27 02:07:42;;;;;;;10.38;4.00;;;;;;;17.30;59.55;94449.78;5090335;28;20035;-79
2022/08/27 02:10:09;;;;;;;9.55;4.25;;;;;;;17.25;59.59;94443.44;5073300;28;20028;-79
2022/08/27 02:12:34;;;;;;;11.20;4.43;;;;;;;16.97;59.93;94421.16;5073384;28;20559;-79
2022/08/27 02:15:00;;;;;;;9.02;3.80;;;;;;;17.07;59.94;94441.09;5073240;28;20024;-79
2022/08/27 02:17:25;;;;;;;8.50;3.70;;;;;;;17.09;60.14;94445.19;5073413;28;20044;-79
2022/08/27 02:19:52;;;;;;;11.38;3.90;;;;;;;17.02;60.24;94439.03;5073230;28;20082;-79
2022/08/27 02:22:17;;;;;;;7.40;3.90;;;;;;;17.11;59.97;94451.06;5090114;28;20061;-78
2022/08/27 02:24:43;;;;;;;13.10;4.43;;;;;;;17.02;60.26;94451.28;5090100;28;20035;-79
2022/08/27 02:27:08;;;;;;;8.88;3.63;;;;;;;16.92;60.65;94449.72;5073330;28;20031;-79
2022/08/27 02:29:34;;;;;;;7.38;3.95;;;;;;;16.84;61.22;94457.66;5073195;28;20024;-79
2022/08/27 02:32:00;;;;;;;6.25;3.95;;;;;;;16.79;61.41;94457.34;5073112;28;20036;-79
2022/08/27 02:34:26;;;;;;;11.35;3.83;;;;;;;16.70;61.62;94456.56;5056581;28;20039;-80
2022/08/27 02:36:52;;;;;;;10.63;4.18;;;;;;;16.74;61.29;94467.50;5073003;28;20426;-79
2022/08/27 02:39:18;;;;;;;10.35;3.80;;;;;;;16.63;61.43;94446.94;5056549;28;20101;-79
2022/08/27 02:41:43;;;;;;;8.88;4.03;;;;;;;16.79;61.22;94461.78;5089930;28;20482;-79
2022/08/27 02:44:10;;;;;;;10.45;3.88;;;;;;;16.85;61.13;94472.38;5073135;28;20020;-79
2022/08/27 02:46:36;;;;;;;11.13;4.22;;;;;;;16.90;61.07;94479.75;5089887;28;20075;-79
2022/08/27 02:49:01;;;;;;;10.15;3.97;;;;;;;16.82;60.80;94472.75;5072997;28;20048;-80
2022/08/27 02:51:27;;;;;;;10.10;4.10;;;;;;;16.88;60.99;94473.84;5056218;28;20119;-79
2022/08/27 02:53:53;;;;;;;8.93;4.25;;;;;;;16.87;61.03;94472.22;5090911;28;20024;-79
2022/08/27 02:56:18;;;;;;;6.93;3.75;;;;;;;16.76;61.34;94452.44;5089622;28;20055;-79
2022/08/27 02:58:44;;;;;;;6.70;4.00;;;;;;;16.94;61.19;94468.75;5089812;28;20020;-79
2022/08/27 03:01:10;;;;;;;12.80;4.13;;;;;;;16.91;60.88;94463.84;5072829;28;20081;-79
2022/08/27 03:03:36;;;;;;;10.75;3.92;;;;;;;16.87;60.90;94470.41;5056075;28;20024;-79
2022/08/27 03:06:01;;;;;;;7.70;3.88;;;;;;;16.88;61.17;94474.69;5072792;28;20058;-79
2022/08/27 03:08:27;;;;;;;7.82;3.90;;;;;;;16.90;60.94;94467.44;5072609;28;20023;-79
2022/08/27 03:10:53;;;;;;;7.15;3.75;;;;;;;16.85;61.09;94467.16;5089566;28;20034;-79
2022/08/27 03:13:19;;;;;;;8.80;4.22;;;;;;;16.85;61.15;94472.38;5072780;28;20031;-79
2022/08/27 03:15:44;;;;;;;8.70;3.63;;;;;;;16.81;61.20;94472.94;5089735;28;20028;-79
2022/08/27 03:18:18;;;;;;;7.40;3.78;;;;;;;16.74;61.25;94465.72;5072748;28;20036;-79
2022/08/27 03:20:52;;;;;;;8.60;4.35;;;;;;;16.71;61.41;94460.81;5074251;28;20028;-79
2022/08/27 03:23:20;;;;;;;8.55;4.18;;;;;;;16.87;61.36;94477.47;5092658;28;20486;-79
2022/08/27 03:25:51;;;;;;;8.27;4.07;;;;;;;16.72;61.06;94459.84;5093649;28;20526;-79
2022/08/27 03:28:20;;;;;;;9.25;4.00;;;;;;;16.82;60.82;94467.50;5076767;28;20051;-79
2022/08/27 03:30:53;;;;;;;6.15;3.72;;;;;;;16.96;60.76;94492.97;5076815;28;20486;-79
2022/08/27 03:33:19;;;;;;;11.57;4.43;;;;;;;16.85;60.76;94488.13;5076320;28;20069;-79
2022/08/27 03:35:46;;;;;;;7.40;3.90;;;;;;;16.71;61.24;94488.84;5059468;28;20123;-79
2022/08/27 03:38:11;;;;;;;7.93;4.35;;;;;;;16.51;61.86;94489.25;5076494;28;20078;-79
2022/08/27 03:40:37;;;;;;;6.93;4.03;;;;;;;16.63;61.12;94496.75;5076468;28;20043;-79
2022/08/27 03:43:03;;;;;;;8.93;4.35;;;;;;;16.61;61.33;94496.13;5076289;28;20036;-80
2022/08/27 03:45:28;;;;;;;11.48;4.03;;;;;;;16.64;61.11;94487.91;5076489;28;20402;-79
2022/08/27 03:47:54;;;;;;;9.52;3.97;;;;;;;16.72;60.59;94500.97;5076193;28;20031;-79
2022/08/27 03:50:19;;;;;;;7.68;3.90;;;;;;;16.69;60.48;94483.78;5076033;28;20028;-80
2022/08/27 03:52:45;;;;;;;8.40;4.10;;;;;;;16.84;60.71;94496.19;5076120;28;20028;-80
2022/08/27 03:55:11;;;;;;;13.38;3.95;;;;;;;16.90;60.65;94495.50;5092889;28;20096;-79
2022/08/27 03:57:37;;;;;;;7.75;4.07;;;;;;;16.96;60.89;94495.59;5075835;28;20048;-80
2022/08/27 04:00:11;;;;;;;6.70;3.40;;;;;;;16.97;61.02;94494.63;5092710;28;20052;-80
2022/08/27 04:02:37;;;;;;;9.77;4.30;;;;;;;16.90;61.84;94504.16;5060774;28;20051;-79
2022/08/27 04:05:03;;;;;;;8.80;3.67;;;;;;;16.86;61.78;94508.16;5092753;28;20058;-80
2022/08/27 04:07:29;;;;;;;4.75;3.45;;;;;;;16.89;62.07;94518.28;5092591;28;20032;-79
2022/08/27 04:09:54;;;;;;;9.13;3.88;;;;;;;16.89;61.41;94517.47;5092492;28;20028;-79
2022/08/27 04:12:20;;;;;;;9.50;3.78;;;;;;;16.95;61.41;94512.34;5092614;28;20035;-80
2022/08/27 04:14:45;;;;;;;6.28;3.60;;;;;;;16.97;61.48;94522.69;5093886;28;20062;-80
2022/08/27 04:17:11;;;;;;;12.15;3.90;;;;;;;17.01;60.66;94518.72;5092507;28;20510;-80
2022/08/27 04:19:36;;;;;;;11.35;4.07;;;;;;;17.02;59.96;94522.13;5075659;28;20032;-80
2022/08/27 04:22:03;;;;;;;9.30;3.92;;;;;;;17.00;59.98;94521.53;5075533;28;20494;-80
2022/08/27 04:24:30;;;;;;;7.57;3.92;;;;;;;17.02;59.84;94509.03;5075296;28;20032;-79
2022/08/27 04:26:55;;;;;;;9.18;3.80;;;;;;;17.05;59.60;94509.50;5075961;28;20035;-80
2022/08/27 04:29:20;;;;;;;6.30;3.58;;;;;;;17.01;60.25;94523.94;5058760;28;20464;-80
2022/08/27 04:31:46;;;;;;;7.85;3.60;;;;;;;17.00;59.87;94516.28;5075555;28;20077;-80
2022/08/27 04:34:12;;;;;;;16.33;4.15;;;;;;;17.00;60.46;94529.38;5075107;28;20501;-79
2022/08/27 04:36:37;;;;;;;8.68;3.80;;;;;;;17.03;60.26;94526.41;5092042;28;20074;-80
2022/08/27 04:39:03;;;;;;;9.23;4.45;;;;;;;16.90;61.09;94527.78;5075078;28;20040;-79
2022/08/27 04:41:32;;;;;;;5.85;3.88;;;;;;;16.82;61.24;94524.38;5092074;28;20056;-79
2022/08/27 04:44:01;;;;;;;7.93;4.38;;;;;;;16.76;61.32;94523.25;5091969;28;20111;-80
2022/08/27 04:46:31;;;;;;;6.68;3.88;;;;;;;16.72;61.60;94524.59;5074881;28;20119;-79
2022/08/27 04:48:57;;;;;;;8.75;3.97;;;;;;;16.81;61.22;94515.72;5075010;28;20127;-79
2022/08/27 04:51:23;;;;;;;5.18;3.40;;;;;;;16.68;62.55;94512.78;5091885;28;20097;-80
2022/08/27 04:53:48;;;;;;;8.80;4.18;;;;;;;16.66;62.62;94526.09;5058034;28;20494;-80
2022/08/27 04:56:15;;;;;;;6.50;4.10;;;;;;;16.57;62.87;94526.28;5074883;28;20054;-80
2022/08/27 04:58:41;;;;;;;9.85;4.25;;;;;;;16.63;62.81;94529.06;5074718;28;20668;-80
2022/08/27 05:01:06;;;;;;;7.95;3.95;;;;;;;16.78;62.30;94518.69;5091399;28;20048;-80
2022/08/27 05:03:32;;;;;;;7.82;4.03;;;;;;;17.10;62.01;94514.22;5057872;28;20474;-80
2022/08/27 05:06:00;;;;;;;9.35;4.10;;;;;;;17.48;60.84;94519.53;5074929;28;20486;-79
2022/08/27 05:08:25;;;;;;;7.20;4.20;;;;;;;17.73;60.96;94523.59;5058065;28;20505;-80
2022/08/27 05:10:51;;;;;;;6.50;3.78;;;;;;;17.70;60.32;94531.81;5074890;28;20070;-80
2022/08/27 05:13:17;;;;;;;6.57;3.92;;;;;;;17.80;60.09;94534.22;5091428;28;20055;-80
2022/08/27 05:15:43;;;;;;;16.98;4.55;;;;;;;17.77;60.65;94527.47;5091444;28;20058;-80
2022/08/27 05:18:08;;;;;;;15.88;4.18;;;;;;;17.89;60.27;94530.53;5074277;28;20028;-80
2022/08/27 05:20:43;;;;;;;9.50;4.15;;;;;;;17.94;60.01;94551.00;5074558;28;20032;-80
2022/08/27 05:23:10;;;;;;;11.07;4.57;;;;;;;18.09;59.66;94554.50;5075241;28;20028;-80
2022/08/27 05:25:40;;;;;;;10.25;4.25;;;;;;;18.24;59.44;94539.53;5092770;28;20036;-80
2022/08/27 05:28:06;;;;;;;10.30;4.00;;;;;;;18.52;58.48;94542.34;5074423;28;20541;-80
2022/08/27 05:30:43;;;;;;;13.80;4.72;;;;;;;18.71;57.78;94548.06;5074313;28;20093;-80
2022/08/27 05:33:09;;;;;;;9.60;4.55;;;;;;;18.85;57.76;94543.81;5057575;28;20024;-80
2022/08/27 05:35:41;;;;;;;13.13;4.53;;;;;;;18.71;57.76;94548.06;5092138;28;20531;-80
2022/08/27 05:38:07;;;;;;;8.88;4.18;;;;;;;18.57;58.51;94535.72;5090995;28;20027;-80
2022/08/27 05:40:32;;;;;;;9.93;4.30;;;;;;;18.81;58.42;94537.28;5091202;28;20060;-80
2022/08/27 05:42:58;;;;;;;6.63;4.03;;;;;;;19.01;57.24;94540.97;5090961;28;20500;-79
2022/08/27 05:45:23;;;;;;;8.25;4.13;;;;;;;19.07;56.36;94534.94;5073496;28;20341;-79
2022/08/27 05:47:49;;;;;;;9.32;4.15;;;;;;;19.29;56.14;94550.78;5073759;28;20024;-80
2022/08/27 05:50:15;;;;;;;10.95;4.13;;;;;;;19.35;55.69;94534.22;5090899;28;20044;-80
2022/08/27 05:52:40;;;;;;;6.55;3.85;;;;;;;19.53;55.14;94545.16;5057239;28;20031;-80
2022/08/27 05:55:06;;;;;;;10.02;4.50;;;;;;;19.48;55.68;94544.88;5073864;28;20036;-80
2022/08/27 05:57:31;;;;;;;12.68;4.28;;;;;;;19.65;56.06;94545.44;5090623;28;20036;-80
2022/08/27 06:02:41;;;;;;;9.13;4.10;;;;;;;19.98;55.03;94545.75;5096890;28;20034;-80
2022/08/27 06:05:06;;;;;;;9.68;4.40;;;;;;;19.98;55.49;94523.84;5077145;28;20040;-80
2022/08/27 06:07:33;;;;;;;12.80;4.53;;;;;;;20.30;54.42;94546.16;5076915;28;20051;-80
2022/08/27 06:09:59;;;;;;;12.25;4.80;;;;;;;20.27;53.97;94543.91;5077744;28;20035;-80
2022/08/27 06:12:24;;;;;;;8.95;4.22;;;;;;;20.12;54.52;94522.94;5077047;28;20390;-80
2022/08/27 06:14:50;;;;;;;9.77;4.47;;;;;;;20.31;53.58;94540.72;5093662;28;20035;-79
2022/08/27 06:17:16;;;;;;;11.57;4.40;;;;;;;20.22;54.57;94535.78;5076823;28;20034;-80
2022/08/27 06:19:41;;;;;;;15.45;4.70;;;;;;;20.36;53.39;94548.03;5093701;28;20395;-80
2022/08/27 06:22:07;;;;;;;8.88;4.93;;;;;;;20.44;53.66;94550.50;5093711;28;20020;-80
2022/08/27 06:24:33;;;;;;;11.07;4.30;;;;;;;20.65;52.89;94548.84;5076745;28;20386;-80
2022/08/27 06:26:58;;;;;;;10.95;4.45;;;;;;;20.72;52.78;94542.56;5060046;28;20127;-80
2022/08/27 06:29:24;;;;;;;6.88;3.95;;;;;;;20.95;51.25;94547.56;5076891;28;20063;-80
2022/08/27 06:31:51;;;;;;;11.38;4.53;;;;;;;21.09;51.04;94553.72;5093525;28;20024;-80
2022/08/27 06:34:17;;;;;;;8.85;3.92;;;;;;;21.27;50.51;94553.13;5076647;28;20122;-80
2022/08/27 06:36:42;;;;;;;9.18;4.18;;;;;;;21.42;50.34;94556.47;5076867;28;20115;-80
2022/08/27 06:39:12;;;;;;;14.50;4.28;;;;;;;21.38;50.27;94557.06;5059824;28;20036;-80
2022/08/27 06:41:37;;;;;;;15.88;4.30;;;;;;;21.56;49.76;94559.97;5094042;28;20472;-80
2022/08/27 06:44:03;;;;;;;10.02;3.70;;;;;;;21.65;49.83;94552.66;5076422;28;20108;-80
2022/08/27 06:46:28;;;;;;;7.70;4.18;;;;;;;21.88;49.34;94562.81;5093054;28;20020;-80
2022/08/27 06:48:55;;;;;;;14.13;4.07;;;;;;;22.02;48.59;94558.34;5093066;28;20036;-80
2022/08/27 06:51:24;;;;;;;10.57;4.00;;;;;;;22.20;48.21;94565.69;5076431;28;20024;-80
2022/08/27 06:53:51;;;;;;;9.80;4.50;;;;;;;22.29;47.75;94554.72;5077003;28;20089;-80
2022/08/27 06:56:16;;;;;;;10.50;3.95;;;;;;;22.32;47.27;94526.22;5094790;28;20485;-80
2022/08/27 06:58:42;;;;;;;12.90;4.13;;;;;;;22.62;46.89;94551.19;5080453;28;20069;-80
2022/08/27 07:01:15;;;;;;;10.68;3.92;;;;;;;22.78;47.10;94557.03;5097478;28;20054;-80
2022/08/27 07:03:42;;;;;;;9.98;4.07;;;;;;;22.81;46.42;94540.75;5097339;28;20503;-80
2022/08/27 07:06:08;;;;;;;10.68;4.38;;;;;;;22.96;45.47;94541.34;5080529;28;20024;-80
2022/08/27 07:08:33;;;;;;;6.18;3.55;;;;;;;23.14;45.57;94545.94;5080174;28;20089;-80
2022/08/27 07:10:59;;;;;;;8.27;4.10;;;;;;;23.19;45.59;94538.97;5115342;28;20456;-80
2022/08/27 07:13:26;;;;;;;9.05;4.18;;;;;;;23.32;45.76;94545.25;5080046;28;20028;-80
2022/08/27 07:15:51;;;;;;;7.55;3.88;;;;;;;23.44;45.26;94540.09;5080445;28;20433;-80
2022/08/27 07:18:17;;;;;;;9.48;3.78;;;;;;;23.51;45.22;94546.94;5096905;28;20028;-80
2022/08/27 07:20:42;;;;;;;8.00;3.83;;;;;;;23.59;45.32;94548.53;5080218;28;20421;-80
2022/08/27 07:23:07;;;;;;;9.25;4.07;;;;;;;23.70;44.67;94545.19;5079848;28;20051;-80
2022/08/27 07:25:33;;;;;;;11.00;4.00;;;;;;;23.80;43.98;94545.56;5096911;28;20023;-80
2022/08/27 07:27:58;;;;;;;8.60;3.83;;;;;;;23.88;43.91;94541.84;5080052;28;20076;-80
2022/08/27 07:30:25;;;;;;;13.75;4.03;;;;;;;24.01;43.46;94543.56;5080146;28;20466;-80
2022/08/27 07:32:50;;;;;;;9.02;3.72;;;;;;;24.13;43.20;94551.66;5080065;28;20481;-80
2022/08/27 07:35:16;;;;;;;12.40;3.97;;;;;;;24.18;42.61;94543.84;5079850;28;20077;-80
2022/08/27 07:37:42;;;;;;;12.27;3.83;;;;;;;24.27;42.90;94540.69;5063104;28;20085;-81
2022/08/27 07:40:12;;;;;;;13.63;4.38;;;;;;;24.39;42.31;94539.97;5079982;28;20070;-80
2022/08/27 07:45:21;;;;;;;9.32;3.70;;;;;;;24.66;42.19;94548.53;5099532;28;20383;-80
2022/08/27 07:47:47;;;;;;;8.55;4.30;;;;;;;24.82;42.54;94545.25;5114805;28;20024;-79
2022/08/27 07:50:13;;;;;;;9.45;3.90;;;;;;;24.94;41.75;94551.47;5079787;28;20497;-80
2022/08/27 07:52:38;;;;;;;10.80;4.35;;;;;;;24.92;41.60;94537.59;5096403;28;20114;-80
2022/08/27 07:55:04;;;;;;;14.82;4.80;;;;;;;25.12;41.89;94547.16;5096299;28;20096;-81
2022/08/27 07:57:30;;;;;;;11.00;4.13;;;;;;;25.18;41.61;94544.47;5096502;28;20548;-80
2022/08/27 07:59:56;;;;;;;11.63;4.32;;;;;;;25.27;40.76;94541.47;5114270;28;20033;-80
2022/08/27 08:02:21;;;;;;;9.02;4.03;;;;;;;25.33;40.79;94546.72;5079360;28;20062;-80
2022/08/27 08:04:47;;;;;;;8.35;3.85;;;;;;;25.30;40.46;94523.25;5096001;28;20087;-80
2022/08/27 08:07:12;;;;;;;9.60;4.15;;;;;;;25.47;39.37;94546.56;5095617;28;20020;-80
2022/08/27 08:09:38;;;;;;;10.23;4.10;;;;;;;25.57;39.06;94546.81;5114256;28;20027;-80
2022/08/27 08:12:04;;;;;;;10.60;5.07;;;;;;;25.59;40.24;94544.72;5095907;28;20046;-81
2022/08/27 08:14:31;;;;;;;11.18;5.15;;;;;;;25.65;39.49;94538.50;5078863;28;20035;-80
2022/08/27 08:17:00;;;;;;;7.07;3.63;;;;;;;25.70;37.44;94532.50;5095978;28;20091;-80
2022/08/27 08:19:26;;;;;;;9.40;3.70;;;;;;;25.78;35.94;94542.81;5095757;28;20040;-80
2022/08/27 08:21:52;;;;;;;8.55;3.20;;;;;;;25.90;35.45;94546.34;5079154;28;20276;-80
2022/08/27 08:24:17;;;;;;;10.20;3.30;;;;;;;26.02;36.27;94536.53;5095782;28;20039;-80
2022/08/27 08:26:43;;;;;;;10.40;3.72;;;;;;;26.05;36.30;94519.31;5078849;28;20028;-80
2022/08/27 08:29:09;;;;;;;11.40;3.72;;;;;;;26.20;36.80;94522.31;5113712;28;20055;-80
2022/08/27 08:31:34;;;;;;;7.65;3.55;;;;;;;26.33;37.02;94523.94;5113789;28;20451;-80
2022/08/27 08:34:00;;;;;;;10.18;3.70;;;;;;;26.47;36.92;94530.66;5095434;28;20444;-81
2022/08/27 08:36:25;;;;;;;10.52;3.67;;;;;;;26.51;37.93;94528.38;5078842;28;20542;-81
2022/08/27 08:38:51;;;;;;;7.95;3.55;;;;;;;26.50;37.03;94516.06;5061850;28;20027;-80
2022/08/27 08:41:50;;;;;;;12.85;3.67;;;;;;;26.58;36.14;94533.56;5061845;28;20425;-80
2022/08/27 08:44:37;;;;;;;12.27;3.63;;;;;;;26.58;35.74;94529.06;5113754;28;20036;-80
2022/08/27 08:47:11;;;;;;;16.35;3.70;;;;;;;26.69;36.24;94536.22;5095468;28;20289;-80
2022/08/27 08:49:50;;;;;;;9.05;3.33;;;;;;;26.83;35.73;94530.63;5113419;28;20039;-80
2022/08/27 08:52:44;;;;;;;9.45;3.67;;;;;;;26.90;35.47;94532.13;5062784;28;20034;-80
2022/08/27 08:55:14;;;;;;;10.02;3.80;;;;;;;26.94;35.26;94533.28;5094990;28;20028;-80
2022/08/27 08:57:41;;;;;;;;;;;;;;;26.98;35.09;94533.63;5095527;28;20116;-80
2022/08/27 09:00:12;;;;;;;8.43;3.42;;;;;;;27.01;35.41;94525.16;5094954;28;19924;-80
2022/08/27 09:02:38;;;;;;;8.68;3.95;;;;;;;27.14;36.07;94529.41;5095788;28;20387;-80
2022/08/27 09:05:05;;;;;;;11.32;3.50;;;;;;;27.22;35.57;94517.56;5095024;28;20020;-80
2022/08/27 09:07:37;;;;;;;11.68;3.50;;;;;;;27.32;35.24;94523.09;5078078;28;20027;-80
2022/08/27 09:10:13;;;;;;;11.02;3.25;;;;;;;27.39;33.73;94521.13;5113246;28;20031;-80
2022/08/27 09:12:38;;;;;;;14.10;3.65;;;;;;;27.46;32.86;94523.63;5078504;28;20074;-81
2022/08/27 09:15:16;;;;;;;9.70;3.33;;;;;;;27.37;32.33;94517.88;5077961;28;20485;-80
2022/08/27 09:17:41;;;;;;;9.50;3.28;;;;;;;27.49;31.22;94521.28;5078223;28;20223;-80
2022/08/27 09:20:08;;;;;;;8.38;3.10;;;;;;;27.44;31.36;94515.84;5076647;28;20147;-80
2022/08/27 09:22:58;;;;;;;9.98;3.72;;;;;;;27.53;32.83;94513.63;5094723;28;20183;-80
2022/08/27 09:25:28;;;;;;;;;;;;;;;27.61;33.34;94515.91;5078197;28;20096;-80
2022/08/27 09:27:58;;;;;;;14.93;3.42;;;;;;;27.61;33.03;94503.38;5077564;28;19937;-80
2022/08/27 09:30:25;;;;;;;12.07;3.30;;;;;;;27.76;32.51;94508.16;5095165;28;20078;-78
2022/08/27 09:33:09;;;;;;;8.88;3.10;;;;;;;27.92;32.11;94500.44;5077564;28;20405;-79
2022/08/27 09:35:40;;;;;;;10.02;3.13;;;;;;;27.98;32.50;94496.81;5094545;28;20069;-78
2022/08/27 09:38:06;;;;;;;10.55;3.50;;;;;;;28.11;31.93;94504.50;5060896;28;20031;-79
2022/08/27 09:40:43;;;;;;;13.20;3.25;;;;;;;28.23;32.12;94509.75;5077314;28;20516;-80
2022/08/27 09:43:14;;;;;;;10.05;2.92;;;;;;;28.25;31.66;94510.28;5062236;28;20016;-80
2022/08/27 09:45:47;;;;;;;8.07;2.80;;;;;;;28.33;32.02;94501.84;5094489;28;20036;-80
2022/08/27 09:48:15;;;;;;;9.18;3.08;;;;;;;28.31;31.84;94490.63;5094238;28;20485;-80
2022/08/27 09:50:50;;;;;;;8.90;3.40;;;;;;;28.49;29.55;94511.75;5077588;28;20035;-80
2022/08/27 09:53:24;;;;;;;12.52;2.72;;;;;;;28.51;28.80;94504.31;5060761;28;20023;-80
2022/08/27 09:56:03;;;;;;;6.80;2.67;;;;;;;28.54;30.07;94491.50;5093960;28;20040;-79
2022/08/27 09:58:30;;;;;;;12.95;2.80;;;;;;;28.65;30.24;94504.75;5112007;28;20019;-79
2022/08/27 10:01:00;;;;;;;10.00;2.97;;;;;;;28.72;29.67;94504.56;5093904;28;20421;-79
2022/08/27 10:03:26;;;;;;;9.73;2.67;;;;;;;28.76;29.06;94489.66;5111955;28;20028;-79
2022/08/27 10:05:52;;;;;;;8.20;2.35;;;;;;;28.84;27.94;94501.78;5111957;28;20108;-79
2022/08/27 10:08:34;;;;;;;8.85;2.70;;;;;;;28.88;27.89;94490.34;5093619;28;20413;-79
2022/08/27 10:11:03;;;;;;;9.70;2.90;;;;;;;28.89;28.29;94483.97;5094202;28;20028;-79
2022/08/27 10:13:56;;;;;;;6.85;2.85;;;;;;;28.99;28.59;94487.78;5076841;28;20051;-79
2022/08/27 10:16:46;;;;;;;6.78;3.05;;;;;;;29.06;29.08;94493.78;5093497;28;20039;-79
2022/08/27 10:19:30;;;;;;;13.25;3.38;;;;;;;29.03;28.64;94488.91;5112170;28;20028;-79
2022/08/27 10:22:25;;;;;;;10.95;3.20;;;;;;;29.00;29.00;94476.03;5111826;28;20062;-79
2022/08/27 10:25:08;;;;;;;7.38;3.08;;;;;;;29.18;28.69;94494.47;5078203;28;20035;-79
2022/08/27 10:27:56;;;;;;;7.05;3.10;;;;;;;29.22;29.45;94487.53;5076692;28;20035;-79
2022/08/27 10:30:31;;;;;;;9.90;3.58;;;;;;;29.26;29.14;94488.66;5111794;28;20031;-80
2022/08/27 10:33:02;;;;;;;9.02;3.20;;;;;;;29.30;28.71;94492.44;5077942;28;20020;-79
2022/08/27 10:35:37;;;;;;;9.25;2.80;;;;;;;29.26;28.35;94477.19;5093347;28;20126;-79
2022/08/27 10:38:20;;;;;;;11.60;3.35;;;;;;;29.37;27.85;94487.72;5094276;28;20042;-79
2022/08/27 10:40:49;;;;;;;11.48;3.20;;;;;;;29.42;28.43;94491.50;5076614;28;20521;-79
2022/08/27 10:43:20;;;;;;;10.30;3.33;;;;;;;29.45;28.13;94483.78;5093329;28;20493;-80
2022/08/27 10:45:56;;;;;;;8.10;3.35;;;;;;;29.51;28.41;94490.00;5093435;28;20489;-80
2022/08/27 10:48:38;;;;;;;7.45;3.38;;;;;;;29.49;27.61;94478.72;5093186;28;20028;-80
2022/08/27 10:51:19;;;;;;;11.05;3.10;;;;;;;29.51;28.10;94485.44;5111277;28;20032;-80
2022/08/27 10:53:57;;;;;;;9.00;3.35;;;;;;;29.47;27.83;94467.47;5059913;28;20478;-80
2022/08/27 10:56:49;;;;;;;10.18;3.17;;;;;;;29.54;26.64;94482.25;5093502;28;20081;-80
2022/08/27 10:59:40;;;;;;;11.98;3.90;;;;;;;29.68;25.41;94480.00;5093996;28;20554;-80
2022/08/27 11:02:08;;;;;;;7.90;3.20;;;;;;;29.68;26.90;94485.38;5093016;28;20032;-80
2022/08/27 11:04:36;;;;;;;12.95;3.88;;;;;;;29.68;25.82;94484.56;5093144;28;20043;-80
2022/08/27 11:07:26;;;;;;;10.45;3.55;;;;;;;29.63;25.98;94471.94;5076540;28;20426;-80
2022/08/27 11:10:24;;;;;;;12.43;3.60;;;;;;;29.75;27.05;94480.59;5093169;28;20061;-80
2022/08/27 11:12:51;;;;;;;7.38;4.00;;;;;;;29.74;26.64;94476.31;5092913;28;20032;-80
2022/08/27 11:15:30;;;;;;;11.80;4.18;;;;;;;29.67;23.90;94477.56;5093235;28;20465;-80
2022/08/27 11:18:17;;;;;;;8.00;3.70;;;;;;;29.67;25.42;94472.22;5111186;28;20114;-80
2022/08/27 11:21:00;;;;;;;8.52;3.60;;;;;;;29.66;24.37;94479.44;5095029;28;20066;-80
2022/08/27 11:23:30;;;;;;;13.52;3.80;;;;;;;29.64;24.53;94464.72;5110926;28;20516;-80
2022/08/27 11:25:58;;;;;;;7.70;3.75;;;;;;;29.71;25.04;94462.66;5076837;28;20040;-79
2022/08/27 11:28:44;;;;;;;7.88;3.55;;;;;;;29.76;24.99;94465.38;5076120;28;20028;-80
2022/08/27 11:31:19;;;;;;;12.38;3.67;;;;;;;29.68;24.85;94455.94;5095480;28;20036;-80
2022/08/27 11:33:57;;;;;;;6.68;3.35;;;;;;;29.58;25.70;94455.81;5076029;28;20516;-80
2022/08/27 11:36:38;;;;;;;11.20;3.67;;;;;;;29.61;24.40;94455.28;5092890;28;20040;-80
2022/08/27 11:39:12;;;;;;;12.85;3.33;;;;;;;29.65;25.06;94461.00;5092761;28;20027;-80
2022/08/27 11:42:01;;;;;;;14.57;3.80;;;;;;;29.47;25.37;94422.00;5111124;28;20481;-81
2022/08/27 11:44:26;;;;;;;10.95;3.80;;;;;;;29.64;25.66;94441.44;5114285;28;20128;-80